Time;durP1;ratioP1;P1;durP2;ratioP2;P2;SDS_P1;SDS_P2;PMS_P1;PMS_P2;Temp;Humidity;BMP_temperature;BMP_pressure;BME280_temperature;BME280_humidity;BME280_pressure;Samples;Min_cycle;Max_cycle;Signal;HPM_P1;HPM_P2
2022/07/06 00:01:15;;;;;;;4.88;1.00;;;20.80;77.50;;;;;;5130552;28;20402;-68
2022/07/06 00:03:41;;;;;;;15.40;1.33;;;20.80;77.70;;;;;;5132645;28;20047;-68
2022/07/06 00:06:07;;;;;;;5.43;1.20;;;20.70;77.70;;;;;;5130259;28;20115;-69
2022/07/06 00:08:33;;;;;;;5.53;1.00;;;20.70;77.80;;;;;;5132660;28;20031;-68
2022/07/06 00:10:58;;;;;;;2.75;1.15;;;20.70;78.20;;;;;;5131028;28;20022;-68
2022/07/06 00:13:24;;;;;;;4.93;1.52;;;20.60;78.70;;;;;;5131997;28;20027;-68
2022/07/06 00:15:50;;;;;;;3.38;0.90;;;20.60;78.40;;;;;;5131216;28;21393;-68
2022/07/06 00:18:15;;;;;;;1.25;0.88;;;20.60;78.50;;;;;;5131769;28;20035;-68
2022/07/06 00:20:41;;;;;;;2.72;0.80;;;20.50;78.70;;;;;;5130789;28;20024;-68
2022/07/06 00:23:07;;;;;;;2.60;1.00;;;20.50;78.80;;;;;;5131802;28;20058;-68
2022/07/06 00:25:33;;;;;;;1.77;0.95;;;20.50;78.80;;;;;;5132974;27;20849;-68
2022/07/06 00:27:58;;;;;;;5.35;1.00;;;20.50;78.80;;;;;;5134725;27;20039;-68
2022/07/06 00:30:24;;;;;;;3.90;1.10;;;20.50;78.90;;;;;;5136965;27;20034;-68
2022/07/06 00:32:53;;;;;;;1.98;0.82;;;20.40;79.10;;;;;;5135328;27;20015;-68
2022/07/06 00:35:19;;;;;;;2.78;1.38;;;20.40;79.10;;;;;;5136687;27;20052;-68
2022/07/06 00:37:45;;;;;;;4.85;1.40;;;20.40;79.20;;;;;;5136336;27;20027;-68
2022/07/06 00:40:11;;;;;;;5.47;1.20;;;20.30;79.50;;;;;;5115411;27;20035;-68
2022/07/06 00:42:45;;;;;;;3.38;1.13;;;20.30;79.40;;;;;;5122860;27;20046;-68
2022/07/06 00:45:14;;;;;;;4.22;1.13;;;20.30;79.50;;;;;;5134820;27;20030;-68
2022/07/06 00:47:41;;;;;;;3.97;1.15;;;20.30;79.40;;;;;;5135215;27;20027;-68
2022/07/06 00:50:21;;;;;;;6.20;1.00;;;20.20;79.20;;;;;;5134850;27;20050;-68
2022/07/06 00:52:55;;;;;;;4.88;1.00;;;20.20;79.30;;;;;;5135561;27;20031;-68
2022/07/06 00:55:26;;;;;;;2.47;0.93;;;20.20;79.40;;;;;;5107573;27;20024;-68
2022/07/06 00:57:53;;;;;;;1.48;0.68;;;20.20;79.40;;;;;;5122811;27;20062;-68
2022/07/06 01:00:21;;;;;;;3.80;0.90;;;20.10;79.50;;;;;;5126728;27;20027;-68
2022/07/06 01:02:50;;;;;;;5.18;1.40;;;20.10;79.60;;;;;;5113155;28;20108;-68
2022/07/06 01:05:17;;;;;;;5.00;1.02;;;20.10;79.60;;;;;;5107868;28;20118;-68
2022/07/06 01:07:45;;;;;;;3.03;0.70;;;20.00;79.70;;;;;;5113322;28;20031;-68
2022/07/06 01:10:12;;;;;;;5.15;1.40;;;20.00;79.70;;;;;;5112787;28;20026;-68
2022/07/06 01:12:40;;;;;;;1.83;1.00;;;20.00;79.70;;;;;;5106533;28;20525;-68
2022/07/06 01:15:08;;;;;;;4.85;0.90;;;20.00;79.70;;;;;;5113683;28;20073;-68
2022/07/06 01:17:34;;;;;;;4.53;1.00;;;19.90;79.40;;;;;;5113621;28;20471;-68
2022/07/06 01:20:14;;;;;;;4.45;1.02;;;19.90;79.20;;;;;;5112082;28;20538;-68
2022/07/06 01:22:40;;;;;;;8.55;2.30;;;19.90;79.40;;;;;;5112205;28;20047;-68
2022/07/06 01:25:07;;;;;;;4.18;1.20;;;19.90;79.30;;;;;;5113532;28;20038;-68
2022/07/06 01:27:36;;;;;;;6.30;1.13;;;19.80;79.30;;;;;;5114380;28;20038;-68
2022/07/06 01:30:04;;;;;;;3.47;1.10;;;19.90;79.60;;;;;;5113564;28;20118;-69
2022/07/06 01:32:29;;;;;;;3.40;0.98;;;19.80;79.80;;;;;;5114209;28;20027;-68
2022/07/06 01:34:55;;;;;;;2.65;1.05;;;19.80;79.70;;;;;;5113415;28;20101;-68
2022/07/06 01:37:22;;;;;;;1.70;0.90;;;19.80;79.80;;;;;;5098566;28;20103;-68
2022/07/06 01:39:53;;;;;;;8.05;1.52;;;19.70;79.70;;;;;;5112378;28;20063;-68
2022/07/06 01:42:19;;;;;;;8.73;1.10;;;19.70;79.60;;;;;;5102179;28;20046;-68
2022/07/06 01:44:45;;;;;;;3.05;1.10;;;19.70;79.60;;;;;;5110798;28;20118;-69
2022/07/06 01:47:11;;;;;;;3.92;1.55;;;19.70;79.40;;;;;;5114070;28;20436;-68
2022/07/06 01:49:37;;;;;;;4.32;1.02;;;19.60;79.30;;;;;;5112557;28;20054;-68
2022/07/06 01:52:03;;;;;;;2.95;1.08;;;19.60;79.30;;;;;;5101132;28;20059;-68
2022/07/06 01:54:29;;;;;;;8.52;1.42;;;19.60;79.20;;;;;;5112360;28;20031;-69
2022/07/06 01:56:55;;;;;;;4.00;1.20;;;19.60;79.00;;;;;;5111424;28;20058;-68
2022/07/06 01:59:20;;;;;;;6.63;1.30;;;19.60;79.10;;;;;;5110834;28;20023;-68
2022/07/06 02:01:46;;;;;;;7.45;1.40;;;19.50;79.10;;;;;;5111894;28;20540;-70
2022/07/06 02:04:12;;;;;;;6.13;1.10;;;19.50;79.20;;;;;;5101284;28;20047;-68
2022/07/06 02:06:38;;;;;;;5.10;1.05;;;19.50;79.40;;;;;;5111770;28;20035;-68
2022/07/06 02:09:04;;;;;;;3.70;0.80;;;19.50;79.50;;;;;;5111701;28;20487;-69
2022/07/06 02:11:32;;;;;;;4.47;1.00;;;19.50;79.60;;;;;;5097197;28;20111;-69
2022/07/06 02:14:01;;;;;;;7.80;1.15;;;19.50;79.70;;;;;;5111374;28;20098;-69
2022/07/06 02:16:26;;;;;;;5.82;1.20;;;19.40;79.80;;;;;;5100179;28;20380;-68
2022/07/06 02:18:52;;;;;;;6.60;2.00;;;19.40;79.80;;;;;;5110480;28;20166;-69
2022/07/06 02:21:18;;;;;;;6.82;0.95;;;19.40;80.00;;;;;;5101535;28;20020;-69
2022/07/06 02:23:46;;;;;;;4.55;1.02;;;19.40;80.00;;;;;;5092224;28;20032;-69
2022/07/06 02:26:12;;;;;;;3.80;1.45;;;19.40;80.00;;;;;;5108202;28;20024;-69
2022/07/06 02:28:38;;;;;;;3.88;0.90;;;19.40;80.10;;;;;;5111384;28;20066;-69
2022/07/06 02:31:06;;;;;;;4.78;0.80;;;19.30;80.00;;;;;;5104257;28;20405;-69
2022/07/06 02:33:31;;;;;;;5.53;1.02;;;19.30;79.80;;;;;;5104614;28;20030;-69
2022/07/06 02:35:58;;;;;;;1.50;0.82;;;19.20;79.70;;;;;;5111512;28;20024;-69
2022/07/06 02:38:24;;;;;;;2.95;1.00;;;19.20;79.40;;;;;;5112547;28;20028;-69
2022/07/06 02:40:50;;;;;;;3.90;0.90;;;19.20;79.20;;;;;;5109808;28;20143;-69
2022/07/06 02:43:15;;;;;;;4.22;1.00;;;19.10;79.00;;;;;;5111664;28;20055;-69
2022/07/06 02:45:41;;;;;;;3.42;0.90;;;19.10;78.70;;;;;;5110792;28;20030;-68
2022/07/06 02:48:09;;;;;;;3.47;0.90;;;19.10;78.40;;;;;;5110382;28;20118;-69
2022/07/06 02:50:37;;;;;;;6.75;2.10;;;19.10;78.10;;;;;;5110644;28;20023;-69
2022/07/06 02:53:04;;;;;;;4.20;1.27;;;19.00;77.90;;;;;;5110823;28;20028;-69
2022/07/06 02:55:31;;;;;;;6.07;1.65;;;18.90;77.60;;;;;;5110824;28;20024;-69
2022/07/06 02:57:57;;;;;;;8.77;1.05;;;18.90;77.60;;;;;;5109140;28;20043;-69
2022/07/06 03:00:23;;;;;;;4.85;1.05;;;18.90;77.60;;;;;;5109269;28;20030;-69
2022/07/06 03:02:49;;;;;;;3.35;0.98;;;18.90;77.60;;;;;;5109910;28;20497;-69
2022/07/06 03:05:15;;;;;;;10.65;1.27;;;18.80;77.40;;;;;;5111202;28;20051;-69
2022/07/06 03:07:41;;;;;;;11.68;1.55;;;18.80;77.30;;;;;;5108282;28;20027;-69
2022/07/06 03:10:08;;;;;;;1.80;0.90;;;18.70;77.20;;;;;;5111595;28;20502;-69
2022/07/06 03:12:34;;;;;;;4.00;0.80;;;18.70;77.00;;;;;;5112073;28;20040;-69
2022/07/06 03:15:00;;;;;;;5.88;1.10;;;18.60;77.00;;;;;;5110526;28;20115;-69
2022/07/06 03:17:29;;;;;;;4.32;0.93;;;18.60;76.90;;;;;;5110307;28;20064;-69
2022/07/06 03:19:54;;;;;;;2.83;0.68;;;18.50;76.90;;;;;;5112720;28;20498;-69
2022/07/06 03:22:20;;;;;;;6.30;1.13;;;18.50;77.20;;;;;;5109618;28;20039;-69
2022/07/06 03:24:47;;;;;;;5.57;1.10;;;18.40;77.10;;;;;;5111052;28;20063;-69
2022/07/06 03:27:12;;;;;;;13.27;1.20;;;18.40;77.10;;;;;;5110283;28;20034;-69
2022/07/06 03:29:39;;;;;;;7.50;0.90;;;18.30;77.10;;;;;;5110490;28;20024;-69
2022/07/06 03:32:05;;;;;;;12.52;1.05;;;18.30;77.10;;;;;;5110885;28;20072;-68
2022/07/06 03:34:32;;;;;;;7.55;1.30;;;18.20;77.00;;;;;;5110958;28;20114;-69
2022/07/06 03:36:58;;;;;;;4.82;0.98;;;18.20;77.10;;;;;;5110905;28;20504;-69
2022/07/06 03:39:23;;;;;;;11.07;1.38;;;18.20;77.10;;;;;;5110156;28;20061;-69
2022/07/06 03:41:50;;;;;;;6.63;1.10;;;18.10;77.20;;;;;;5109856;28;20490;-69
2022/07/06 03:44:19;;;;;;;3.40;1.10;;;18.00;77.10;;;;;;5109810;28;20031;-69
2022/07/06 03:46:45;;;;;;;7.53;1.02;;;18.00;77.20;;;;;;5110006;28;20020;-69
2022/07/06 03:49:12;;;;;;;4.90;0.90;;;18.00;77.20;;;;;;5110549;28;20490;-69
2022/07/06 03:51:39;;;;;;;3.28;0.90;;;18.00;77.30;;;;;;5108806;28;20062;-69
2022/07/06 03:54:05;;;;;;;2.95;1.10;;;17.90;77.20;;;;;;5111265;28;20024;-69
2022/07/06 03:56:33;;;;;;;6.95;2.00;;;17.90;77.30;;;;;;5109339;28;20039;-69
2022/07/06 03:59:07;;;;;;;10.40;1.23;;;17.90;77.50;;;;;;5110138;28;20058;-68
2022/07/06 04:01:36;;;;;;;2.28;0.70;;;17.80;77.40;;;;;;5113293;28;20075;-69
2022/07/06 04:04:03;;;;;;;3.60;1.10;;;17.80;77.40;;;;;;5106337;28;20028;-69
2022/07/06 04:06:30;;;;;;;2.75;0.88;;;17.80;77.40;;;;;;5113436;28;20239;-69
2022/07/06 04:08:56;;;;;;;7.13;1.20;;;17.80;77.50;;;;;;5114232;28;20065;-69
2022/07/06 04:11:22;;;;;;;2.38;1.10;;;17.80;77.60;;;;;;5114174;28;20463;-69
2022/07/06 04:13:49;;;;;;;2.13;0.70;;;17.70;77.70;;;;;;5114199;28;20023;-69
2022/07/06 04:16:15;;;;;;;4.50;0.80;;;17.60;77.80;;;;;;5112762;28;20387;-69
2022/07/06 04:18:41;;;;;;;3.20;0.90;;;17.70;77.80;;;;;;5113322;28;20020;-70
2022/07/06 04:21:07;;;;;;;4.20;1.23;;;17.60;77.80;;;;;;5114057;28;20023;-69
2022/07/06 04:23:35;;;;;;;2.63;0.65;;;17.60;77.90;;;;;;5113438;28;20038;-69
2022/07/06 04:26:03;;;;;;;4.88;1.02;;;17.60;77.80;;;;;;5113150;28;20104;-69
2022/07/06 04:28:31;;;;;;;2.45;0.85;;;17.60;77.60;;;;;;5113622;28;20023;-67
2022/07/06 04:30:57;;;;;;;3.72;0.70;;;17.60;77.80;;;;;;5114217;28;20470;-68
2022/07/06 04:33:24;;;;;;;2.72;1.38;;;17.60;77.90;;;;;;5108941;28;20548;-69
2022/07/06 04:35:50;;;;;;;7.43;0.95;;;17.50;78.10;;;;;;5115457;28;20063;-69
2022/07/06 04:38:17;;;;;;;9.02;1.08;;;17.50;78.40;;;;;;5112965;28;20028;-69
2022/07/06 04:40:46;;;;;;;4.05;0.95;;;17.60;78.70;;;;;;5112952;28;20020;-69
2022/07/06 04:43:17;;;;;;;2.78;0.85;;;17.50;78.70;;;;;;5112119;28;20023;-70
2022/07/06 04:45:46;;;;;;;2.88;0.90;;;17.60;78.30;;;;;;5111603;28;20026;-69
2022/07/06 04:48:12;;;;;;;2.67;1.00;;;17.50;78.40;;;;;;5113835;28;20023;-69
2022/07/06 04:50:38;;;;;;;1.38;0.47;;;17.50;78.20;;;;;;5112962;28;20062;-69
2022/07/06 04:53:06;;;;;;;1.00;0.45;;;17.50;78.00;;;;;;5112078;28;20058;-69
2022/07/06 04:55:33;;;;;;;3.28;0.70;;;17.40;78.00;;;;;;5113336;28;20106;-69
2022/07/06 04:57:59;;;;;;;2.28;0.95;;;17.40;78.30;;;;;;5112409;28;20107;-69
2022/07/06 05:00:26;;;;;;;2.20;0.82;;;17.40;78.60;;;;;;5112488;28;20391;-69
2022/07/06 05:02:52;;;;;;;4.03;0.90;;;17.30;78.60;;;;;;5112662;28;20093;-69
2022/07/06 05:05:20;;;;;;;6.45;1.42;;;17.30;79.10;;;;;;5094626;28;20024;-69
2022/07/06 05:07:47;;;;;;;4.03;1.02;;;17.30;79.40;;;;;;5111873;28;20027;-69
2022/07/06 05:10:13;;;;;;;6.38;1.20;;;17.30;79.50;;;;;;5112429;28;20027;-69
2022/07/06 05:12:45;;;;;;;1.75;0.75;;;17.30;79.80;;;;;;5112375;28;20115;-69
2022/07/06 05:15:13;;;;;;;4.05;1.08;;;17.30;79.70;;;;;;5111887;28;20055;-69
2022/07/06 05:17:38;;;;;;;3.20;0.95;;;17.30;80.30;;;;;;5114840;28;20394;-70
2022/07/06 05:20:06;;;;;;;2.30;0.80;;;17.30;80.00;;;;;;5112993;28;20051;-69
2022/07/06 05:22:34;;;;;;;2.40;0.88;;;17.30;80.00;;;;;;5108890;28;20035;-69
2022/07/06 05:25:00;;;;;;;4.32;0.90;;;17.30;79.90;;;;;;5104021;28;20027;-69
2022/07/06 05:27:26;;;;;;;3.75;0.90;;;17.30;80.70;;;;;;5111962;28;20039;-68
2022/07/06 05:29:52;;;;;;;2.75;0.77;;;17.40;80.40;;;;;;5106077;28;20031;-68
2022/07/06 05:32:19;;;;;;;0.63;0.55;;;17.40;80.30;;;;;;5112592;28;20039;-69
2022/07/06 05:34:45;;;;;;;1.40;0.63;;;17.30;80.40;;;;;;5110644;28;20033;-68
2022/07/06 05:37:12;;;;;;;2.28;0.60;;;17.30;80.50;;;;;;5109974;28;20193;-69
2022/07/06 05:39:39;;;;;;;4.60;0.98;;;17.30;80.50;;;;;;5108008;28;20019;-68
2022/07/06 05:42:05;;;;;;;2.50;0.52;;;17.30;81.00;;;;;;5110152;28;20318;-68
2022/07/06 05:44:33;;;;;;;1.35;0.52;;;17.30;80.70;;;;;;5107417;28;20076;-68
2022/07/06 05:50:11;;;;;;;3.00;0.73;;;17.30;80.80;;;;;;5108602;28;20026;-67
2022/07/06 05:52:31;;;;;;;6.55;1.52;;;17.30;81.00;;;;;;5107944;28;20375;-69
2022/07/06 05:54:57;;;;;;;3.13;0.90;;;17.30;81.40;;;;;;5108914;28;20138;-68
2022/07/06 05:57:23;;;;;;;2.50;0.82;;;17.30;81.30;;;;;;5108720;28;20027;-68
2022/07/06 05:59:49;;;;;;;1.30;0.90;;;17.30;81.60;;;;;;5112342;28;20042;-66
2022/07/06 06:02:15;;;;;;;0.93;0.30;;;17.30;81.80;;;;;;5112159;28;20499;-66
2022/07/06 06:04:41;;;;;;;0.57;0.47;;;17.30;81.70;;;;;;5109959;28;20028;-66
2022/07/06 06:07:07;;;;;;;2.72;0.70;;;17.30;81.60;;;;;;5109342;28;20429;-66
2022/07/06 06:09:33;;;;;;;1.52;0.55;;;17.40;81.90;;;;;;5108458;28;20106;-68
2022/07/06 06:11:59;;;;;;;2.95;0.68;;;17.40;82.10;;;;;;5108331;28;20031;-68
2022/07/06 06:14:24;;;;;;;3.10;1.08;;;17.40;82.20;;;;;;5106158;28;20024;-67
2022/07/06 06:16:51;;;;;;;8.63;0.98;;;17.50;83.10;;;;;;5108167;28;20058;-72
2022/07/06 06:19:17;;;;;;;3.28;0.90;;;17.50;83.80;;;;;;5108654;28;20049;-69
2022/07/06 06:21:43;;;;;;;3.35;1.00;;;17.60;83.30;;;;;;5111840;28;20479;-67
2022/07/06 06:24:09;;;;;;;8.50;0.82;;;17.60;83.30;;;;;;5109175;28;20487;-67
2022/07/06 06:26:34;;;;;;;6.22;0.85;;;17.60;83.70;;;;;;5112720;28;20023;-67
2022/07/06 06:29:00;;;;;;;4.07;0.80;;;17.70;84.30;;;;;;5112567;28;20032;-67
2022/07/06 06:31:26;;;;;;;2.97;0.63;;;17.70;84.40;;;;;;5112387;28;20106;-67
2022/07/06 06:33:52;;;;;;;5.82;0.90;;;17.70;84.50;;;;;;5112002;28;20031;-67
2022/07/06 06:36:18;;;;;;;3.60;1.23;;;17.80;85.30;;;;;;5112930;28;20024;-67
2022/07/06 06:38:44;;;;;;;3.83;0.63;;;17.80;84.40;;;;;;5109522;28;20120;-67
2022/07/06 06:41:10;;;;;;;2.67;0.73;;;17.80;83.00;;;;;;5110992;28;20115;-67
2022/07/06 06:43:36;;;;;;;3.60;0.68;;;17.80;82.70;;;;;;5109390;28;20088;-67
2022/07/06 06:46:13;;;;;;;3.15;1.10;;;17.80;83.20;;;;;;5107234;28;20123;-67
2022/07/06 06:48:39;;;;;;;2.90;0.85;;;17.80;83.30;;;;;;5110621;28;20110;-67
2022/07/06 06:51:05;;;;;;;4.95;1.02;;;17.80;83.00;;;;;;5110217;28;20031;-67
2022/07/06 06:53:33;;;;;;;2.90;1.05;;;17.80;83.30;;;;;;5112005;28;20055;-67
2022/07/06 06:55:59;;;;;;;7.10;1.00;;;17.80;83.90;;;;;;5111814;28;20081;-67
2022/07/06 06:58:24;;;;;;;7.72;1.10;;;17.80;84.20;;;;;;5112914;28;20036;-67
2022/07/06 07:00:50;;;;;;;0.90;0.60;;;17.80;84.50;;;;;;5112694;27;20371;-67
2022/07/06 07:03:16;;;;;;;6.10;0.90;;;17.80;84.60;;;;;;5133056;27;20119;-67
2022/07/06 07:05:42;;;;;;;5.85;1.02;;;17.90;84.20;;;;;;5133365;27;20454;-67
2022/07/06 07:08:07;;;;;;;4.57;0.93;;;17.90;84.30;;;;;;5132179;27;20156;-67
2022/07/06 07:10:33;;;;;;;4.85;1.27;;;18.00;84.60;;;;;;5133176;27;20054;-67
2022/07/06 07:13:02;;;;;;;3.00;0.60;;;18.00;84.30;;;;;;5131921;27;20023;-67
2022/07/06 07:15:30;;;;;;;4.50;1.08;;;18.10;84.80;;;;;;5132123;28;20035;-67
2022/07/06 07:17:56;;;;;;;2.75;0.80;;;18.10;83.20;;;;;;5132783;28;20513;-67
2022/07/06 07:20:25;;;;;;;2.83;0.73;;;18.10;83.70;;;;;;5119225;28;20023;-67
2022/07/06 07:22:51;;;;;;;2.67;0.60;;;18.20;83.70;;;;;;5119748;28;20126;-67
2022/07/06 07:25:16;;;;;;;7.28;1.40;;;18.20;83.80;;;;;;5132047;28;20062;-68
2022/07/06 07:27:42;;;;;;;6.03;0.98;;;18.20;83.70;;;;;;5131975;28;20039;-67
2022/07/06 07:30:08;;;;;;;5.55;1.00;;;18.30;83.40;;;;;;5132503;28;20015;-67
2022/07/06 07:32:34;;;;;;;3.65;0.82;;;18.30;83.40;;;;;;5133147;28;20037;-67
2022/07/06 07:35:06;;;;;;;1.65;0.57;;;18.30;83.50;;;;;;5133122;27;20114;-67
2022/07/06 07:37:32;;;;;;;3.35;0.60;;;18.30;83.10;;;;;;5136266;27;20104;-67
2022/07/06 07:39:58;;;;;;;2.67;0.73;;;18.30;82.80;;;;;;5135583;27;20087;-67
2022/07/06 07:42:24;;;;;;;6.05;1.17;;;18.30;82.90;;;;;;5136245;27;20031;-68
2022/07/06 07:44:50;;;;;;;4.65;1.00;;;18.40;83.10;;;;;;5135966;27;20023;-67
2022/07/06 07:47:15;;;;;;;3.33;0.82;;;18.40;82.70;;;;;;5136934;27;20062;-67
2022/07/06 07:49:41;;;;;;;7.75;0.90;;;18.50;82.30;;;;;;5135414;27;20374;-67
2022/07/06 07:52:07;;;;;;;5.65;1.00;;;18.50;81.90;;;;;;5137059;27;20423;-67
2022/07/06 07:54:33;;;;;;;4.78;0.70;;;18.50;81.70;;;;;;5135139;27;20041;-67
2022/07/06 07:56:59;;;;;;;2.42;0.60;;;18.60;81.30;;;;;;5135294;27;20054;-67
2022/07/06 07:59:25;;;;;;;2.47;0.90;;;18.70;81.30;;;;;;5134821;27;20027;-67
2022/07/06 08:01:51;;;;;;;4.32;1.50;;;18.70;81.20;;;;;;5118407;27;20054;-67
2022/07/06 08:04:17;;;;;;;4.68;0.93;;;18.80;81.40;;;;;;5134868;27;20035;-67
2022/07/06 08:06:43;;;;;;;1.75;0.75;;;18.80;81.10;;;;;;5136095;27;20063;-68
2022/07/06 08:09:09;;;;;;;4.03;0.88;;;18.90;80.90;;;;;;5135848;27;20108;-68
2022/07/06 08:11:35;;;;;;;2.25;0.60;;;18.90;80.70;;;;;;5135646;27;20051;-67
2022/07/06 08:14:01;;;;;;;1.83;0.55;;;18.90;80.70;;;;;;5135485;27;20023;-67
2022/07/06 08:16:30;;;;;;;6.43;1.60;;;19.00;80.70;;;;;;5136050;27;20470;-67
2022/07/06 08:18:56;;;;;;;6.68;0.80;;;19.00;80.50;;;;;;5135556;27;20023;-67
2022/07/06 08:21:22;;;;;;;3.08;0.60;;;19.00;79.70;;;;;;5136367;27;20023;-67
2022/07/06 08:23:47;;;;;;;10.93;0.90;;;19.00;79.50;;;;;;5133327;27;20504;-67
2022/07/06 08:26:13;;;;;;;6.55;0.90;;;19.10;79.60;;;;;;5135503;27;20024;-67
2022/07/06 08:28:42;;;;;;;3.35;1.00;;;19.10;79.70;;;;;;5134675;27;20038;-67
2022/07/06 08:31:07;;;;;;;2.28;0.82;;;19.10;80.00;;;;;;5135696;27;20027;-67
2022/07/06 08:33:33;;;;;;;3.80;0.47;;;19.10;79.90;;;;;;5135764;27;20080;-67
2022/07/06 08:35:59;;;;;;;3.45;0.82;;;19.20;79.00;;;;;;5135393;27;20115;-68
2022/07/06 08:38:25;;;;;;;3.40;0.82;;;19.20;78.80;;;;;;5133842;27;20046;-67
2022/07/06 08:40:51;;;;;;;3.20;0.80;;;19.20;78.60;;;;;;5136109;27;20027;-67
2022/07/06 08:43:17;;;;;;;6.03;0.80;;;19.20;79.40;;;;;;5135058;27;20162;-67
2022/07/06 08:45:45;;;;;;;1.65;0.73;;;19.30;78.90;;;;;;5134809;27;20047;-67
2022/07/06 08:48:12;;;;;;;9.50;0.82;;;19.30;79.00;;;;;;5134941;27;20399;-67
2022/07/06 08:50:38;;;;;;;1.92;0.55;;;19.40;78.90;;;;;;5135876;27;20031;-67
2022/07/06 08:53:04;;;;;;;4.80;0.68;;;19.40;78.70;;;;;;5134295;27;20046;-67
2022/07/06 08:55:31;;;;;;;1.30;0.50;;;19.40;78.00;;;;;;5137404;27;20391;-67
2022/07/06 08:57:57;;;;;;;2.72;0.90;;;19.40;77.80;;;;;;5135418;27;20401;-67
2022/07/06 09:00:26;;;;;;;3.30;0.77;;;19.50;77.70;;;;;;5135143;27;20038;-68
2022/07/06 09:02:56;;;;;;;1.80;0.63;;;19.50;77.70;;;;;;5134341;27;20099;-67
2022/07/06 09:05:23;;;;;;;2.15;0.70;;;19.50;77.60;;;;;;5132897;27;20107;-66
2022/07/06 09:07:52;;;;;;;1.48;0.70;;;19.60;77.30;;;;;;5131817;27;20035;-66
2022/07/06 09:10:20;;;;;;;5.13;0.70;;;19.60;77.10;;;;;;5133484;27;20027;-67
2022/07/06 09:12:46;;;;;;;3.60;0.93;;;19.70;76.90;;;;;;5131638;27;20031;-66
2022/07/06 09:15:16;;;;;;;1.73;0.70;;;19.70;76.80;;;;;;5127516;27;20040;-67
2022/07/06 09:17:43;;;;;;;1.38;0.80;;;19.70;76.80;;;;;;5128501;27;20024;-66
2022/07/06 09:20:13;;;;;;;3.28;0.57;;;19.80;76.90;;;;;;5131793;27;20058;-66
2022/07/06 09:22:40;;;;;;;1.27;0.60;;;19.80;77.60;;;;;;5131950;27;20039;-66
2022/07/06 09:25:13;;;;;;;2.70;0.60;;;19.90;75.80;;;;;;5132937;27;20040;-66
2022/07/06 09:27:41;;;;;;;2.35;0.75;;;19.90;76.10;;;;;;5129076;27;20077;-66
2022/07/06 09:30:10;;;;;;;1.85;0.32;;;19.80;76.60;;;;;;5132083;27;20069;-66
2022/07/06 09:32:59;;;;;;;4.63;1.23;;;19.90;77.00;;;;;;5130791;27;20027;-66
2022/07/06 09:35:36;;;;;;;2.35;0.95;;;20.00;76.60;;;;;;5110025;27;20487;-66
2022/07/06 09:38:03;;;;;;;3.38;0.73;;;20.00;77.00;;;;;;5134427;27;20042;-66
2022/07/06 09:40:32;;;;;;;6.72;0.90;;;20.10;77.20;;;;;;5133199;27;20539;-66
2022/07/06 09:43:14;;;;;;;0.60;0.50;;;20.10;76.70;;;;;;5133303;27;20050;-66
2022/07/06 09:45:42;;;;;;;1.60;0.55;;;20.20;76.50;;;;;;5130532;27;20351;-66
2022/07/06 09:48:25;;;;;;;2.13;0.70;;;20.20;76.80;;;;;;5134611;27;20027;-66
2022/07/06 09:51:06;;;;;;;0.75;0.32;;;20.30;77.10;;;;;;5134052;27;20486;-67
2022/07/06 09:53:38;;;;;;;8.27;0.80;;;20.30;77.30;;;;;;5124425;27;20039;-66
2022/07/06 09:56:06;;;;;;;3.17;1.08;;;20.30;77.50;;;;;;5133262;27;20019;-66
2022/07/06 09:58:37;;;;;;;2.80;0.75;;;20.30;77.40;;;;;;5134827;27;20034;-66
2022/07/06 10:01:03;;;;;;;3.67;0.90;;;20.30;77.40;;;;;;5132309;27;20034;-67
2022/07/06 10:03:30;;;;;;;7.35;0.68;;;20.40;77.70;;;;;;5128978;27;20039;-66
2022/07/06 10:05:57;;;;;;;2.65;0.57;;;20.40;78.00;;;;;;5130266;27;20495;-65
2022/07/06 10:08:23;;;;;;;5.68;0.90;;;20.40;78.00;;;;;;5131828;27;20155;-66
2022/07/06 10:10:49;;;;;;;2.85;0.88;;;20.40;78.30;;;;;;5129145;27;20398;-64
2022/07/06 10:13:21;;;;;;;4.65;0.90;;;20.50;78.10;;;;;;5130448;27;20083;-67
2022/07/06 10:15:47;;;;;;;3.85;1.00;;;20.40;78.00;;;;;;5130340;27;20110;-67
2022/07/06 10:18:14;;;;;;;5.15;0.93;;;20.50;77.90;;;;;;5130495;27;20038;-68
2022/07/06 10:20:40;;;;;;;3.72;0.85;;;20.50;78.00;;;;;;5130773;27;20466;-68
2022/07/06 10:23:08;;;;;;;2.10;0.50;;;20.50;77.80;;;;;;5131225;27;20050;-68
2022/07/06 10:25:34;;;;;;;8.90;0.90;;;20.50;78.20;;;;;;5130435;27;20019;-68
2022/07/06 10:28:00;;;;;;;4.85;0.90;;;20.50;78.20;;;;;;5131524;27;20394;-68
2022/07/06 10:30:28;;;;;;;2.55;0.80;;;20.50;77.70;;;;;;5131379;27;20030;-68
2022/07/06 10:32:56;;;;;;;4.10;0.90;;;20.50;77.90;;;;;;5131091;27;20383;-68
2022/07/06 10:35:22;;;;;;;4.97;0.85;;;20.60;77.50;;;;;;5129689;27;20484;-68
2022/07/06 10:38:06;;;;;;;5.00;1.02;;;20.60;77.20;;;;;;5130681;27;20113;-67
2022/07/06 10:43:18;;;;;;;1.60;0.60;;;20.70;77.70;;;;;;5128931;27;20406;-67
2022/07/06 10:45:44;;;;;;;3.05;0.85;;;20.70;77.90;;;;;;5128922;27;20019;-68
2022/07/06 10:48:12;;;;;;;2.55;0.82;;;20.70;78.00;;;;;;5131651;27;20027;-68
2022/07/06 10:50:47;;;;;;;6.60;1.10;;;20.70;78.10;;;;;;5131219;27;20071;-68
2022/07/06 10:53:17;;;;;;;0.30;0.30;;;20.70;77.20;;;;;;5129738;27;20027;-67
2022/07/06 10:55:47;;;;;;;4.75;1.00;;;20.60;77.90;;;;;;5130551;27;20023;-67
2022/07/06 10:58:14;;;;;;;0.30;0.30;;;20.60;77.60;;;;;;5129986;27;20023;-67
2022/07/06 11:00:56;;;;;;;6.50;1.05;;;20.70;78.20;;;;;;5130920;27;20386;-68
2022/07/06 11:03:41;;;;;;;5.63;1.63;;;20.70;77.80;;;;;;5110239;27;20038;-67
2022/07/06 11:06:12;;;;;;;1.23;0.55;;;20.70;77.90;;;;;;5127587;27;20027;-67
2022/07/06 11:08:50;;;;;;;1.27;0.70;;;20.70;78.10;;;;;;5129310;27;20035;-67
2022/07/06 11:11:41;;;;;;;3.97;0.80;;;20.70;77.10;;;;;;5129412;27;20028;-67
2022/07/06 11:14:17;;;;;;;6.63;0.82;;;20.80;77.50;;;;;;5124037;27;20046;-67
2022/07/06 11:16:46;;;;;;;1.00;0.55;;;20.90;77.50;;;;;;5110098;28;20027;-67
2022/07/06 11:19:20;;;;;;;4.70;0.73;;;20.90;77.40;;;;;;5127628;28;20031;-67
2022/07/06 11:21:51;;;;;;;;;;;20.90;75.90;;;;;;5129588;28;20031;-68
2022/07/06 11:24:25;;;;;;;7.05;1.17;;;21.00;77.00;;;;;;5128623;28;19918;-67
2022/07/06 11:26:52;;;;;;;1.60;0.82;;;21.00;76.40;;;;;;5128160;28;20114;-67
2022/07/06 11:29:22;;;;;;;1.30;0.65;;;21.00;75.40;;;;;;5133449;28;20110;-67
2022/07/06 11:31:52;;;;;;;5.82;0.93;;;21.00;75.90;;;;;;5129380;28;20027;-67
2022/07/06 11:34:32;;;;;;;2.75;0.60;;;21.10;76.20;;;;;;5127246;28;20047;-67
2022/07/06 11:37:01;;;;;;;4.72;1.13;;;21.20;76.00;;;;;;5127753;28;20035;-66
2022/07/06 11:39:31;;;;;;;2.20;0.75;;;21.20;75.00;;;;;;5130156;28;20070;-67
2022/07/06 11:41:58;;;;;;;0.38;0.38;;;21.20;73.70;;;;;;5128502;28;20038;-67
2022/07/06 11:44:24;;;;;;;12.43;0.90;;;21.30;75.90;;;;;;5130089;28;20035;-68
2022/07/06 11:46:50;;;;;;;0.98;0.30;;;21.30;75.80;;;;;;5126927;28;20024;-67
2022/07/06 11:49:20;;;;;;;0.98;0.70;;;21.30;76.10;;;;;;5128177;28;20027;-67
2022/07/06 11:51:46;;;;;;;0.55;0.43;;;21.30;75.70;;;;;;5128344;28;20073;-67
2022/07/06 11:54:17;;;;;;;0.40;0.40;;;21.30;75.60;;;;;;5128437;28;20521;-67
2022/07/06 11:57:01;;;;;;;0.30;0.30;;;21.40;75.90;;;;;;5126943;28;20019;-67
2022/07/06 11:59:35;;;;;;;5.25;0.80;;;21.40;75.50;;;;;;5128470;28;20108;-67
2022/07/06 12:02:12;;;;;;;3.60;0.70;;;21.30;75.00;;;;;;5126145;28;20051;-67
2022/07/06 12:04:40;;;;;;;0.20;0.20;;;21.40;75.30;;;;;;5127565;28;20110;-67
2022/07/06 12:07:14;;;;;;;0.38;0.35;;;21.40;75.60;;;;;;5128598;28;20027;-67
2022/07/06 12:09:41;;;;;;;0.52;0.52;;;21.40;75.00;;;;;;5128232;28;20030;-66
2022/07/06 12:12:08;;;;;;;0.75;0.50;;;21.40;75.50;;;;;;5131977;28;20035;-68
2022/07/06 12:14:36;;;;;;;1.30;0.68;;;21.50;75.80;;;;;;5131461;28;20023;-67
2022/07/06 12:17:10;;;;;;;0.40;0.40;;;21.50;75.30;;;;;;5129675;28;20109;-67
2022/07/06 12:19:37;;;;;;;0.70;0.35;;;21.50;75.40;;;;;;5131004;28;20029;-66
2022/07/06 12:22:04;;;;;;;0.52;0.43;;;21.50;75.30;;;;;;5130142;27;20483;-67
2022/07/06 12:24:32;;;;;;;4.18;0.93;;;21.60;75.20;;;;;;5132586;27;20027;-66
2022/07/06 12:27:19;;;;;;;1.63;0.70;;;21.60;74.90;;;;;;5131108;27;20072;-66
2022/07/06 12:29:46;;;;;;;1.38;0.52;;;21.60;74.60;;;;;;5132785;27;20415;-67
2022/07/06 12:32:22;;;;;;;1.35;0.45;;;21.70;75.70;;;;;;5132920;27;20482;-67
2022/07/06 12:35:07;;;;;;;2.85;0.65;;;21.80;75.00;;;;;;5132228;27;20157;-67
2022/07/06 12:37:33;;;;;;;0.68;0.57;;;21.80;74.80;;;;;;5131816;27;20527;-67
2022/07/06 12:39:58;;;;;;;1.20;0.57;;;21.80;74.40;;;;;;5133456;27;20031;-67
2022/07/06 12:42:24;;;;;;;4.03;1.17;;;21.80;74.20;;;;;;5133378;27;20039;-67
2022/07/06 12:44:51;;;;;;;0.55;0.40;;;21.80;73.90;;;;;;5129851;27;20027;-67
2022/07/06 12:47:24;;;;;;;1.50;0.68;;;21.80;73.60;;;;;;5131796;27;20058;-67
2022/07/06 12:50:08;;;;;;;1.42;0.85;;;21.90;73.20;;;;;;5132011;27;20041;-68
2022/07/06 12:52:34;;;;;;;1.13;0.52;;;22.00;73.40;;;;;;5131806;27;20394;-67
2022/07/06 12:55:01;;;;;;;12.90;0.52;;;21.90;73.40;;;;;;5131706;27;20492;-65
2022/07/06 12:57:27;;;;;;;0.40;0.40;;;21.90;73.60;;;;;;5134493;27;20034;-65